Norfolk, Virginia
Traffic Map
Current Weather Conditions
Norfolk, Virginia
Clear
Clear
81°
Feels Like: 86°
Wind Chill: 81° Ceiling: Unl
Heat Index: 86° Visibility: 10mi
Dew Point: 73° Wind: 13mph
Humidity: 77% Direction: 210° (SSW)
Pressure: 30.07in Gusts: 0mph
Raw Report DataKORF 080351Z AUTO 21011KT 10SM CLR 27/23 A3007 RMK AO2 SLP183 T02720228 TSNO
Traffic Incident Summary
Active as of:
Severity:
Category:
InformationThere was an issue retrieving the traffic information for this location. Please try a different location or try again shortly.
Advertisements
Track Severe Weather on mobile